Time;durP1;ratioP1;P1;durP2;ratioP2;P2;SDS_P1;SDS_P2;PMS_P1;PMS_P2;Temp;Humidity;BMP_temperature;BMP_pressure;BME280_temperature;BME280_humidity;BME280_pressure;Samples;Min_cycle;Max_cycle;Signal;HPM_P1;HPM_P2
2022/09/01 00:00:03;;;;;;;6.18;3.90;;;;;;;22.13;57.24;96758.81;10536629;28;20020;-29
2022/09/01 00:05:06;;;;;;;3.58;3.28;;;;;;;22.16;57.03;96756.22;10541117;28;20070;-28
2022/09/01 00:10:07;;;;;;;3.60;3.30;;;;;;;22.12;56.94;96757.13;10548269;28;20028;-28
2022/09/01 00:15:09;;;;;;;6.85;3.60;;;;;;;22.13;56.88;96758.81;10551049;28;20122;-28
2022/09/01 00:20:10;;;;;;;6.43;3.70;;;;;;;22.27;56.07;96751.81;10548558;28;20027;-29
2022/09/01 00:25:10;;;;;;;4.47;3.45;;;;;;;22.30;55.69;96756.88;10554160;28;20038;-28
2022/09/01 00:30:11;;;;;;;4.13;3.73;;;;;;;22.20;55.95;96749.38;10545894;28;20510;-28
2022/09/01 00:35:14;;;;;;;3.65;3.10;;;;;;;22.18;56.89;96756.19;10543988;28;20081;-29
2022/09/01 00:40:16;;;;;;;3.95;3.35;;;;;;;22.15;56.53;96751.16;10558657;28;20035;-28
2022/09/01 00:45:18;;;;;;;4.00;3.50;;;;;;;22.13;56.50;96748.63;10553262;28;20040;-29
2022/09/01 00:50:19;;;;;;;4.57;3.53;;;;;;;22.13;56.40;96745.25;10547895;28;20509;-28
2022/09/01 00:55:28;;;;;;;3.63;3.30;;;;;;;22.10;56.51;96746.13;10546012;28;20041;-28
2022/09/01 01:00:30;;;;;;;4.22;3.08;;;;;;;22.12;56.88;96746.06;10545683;28;20023;-28
2022/09/01 01:05:35;;;;;;;3.85;3.50;;;;;;;22.17;55.30;96732.44;10549285;27;20477;-28
2022/09/01 01:10:38;;;;;;;3.78;3.30;;;;;;;22.23;55.43;96739.13;10552901;28;20135;-28
2022/09/01 01:15:42;;;;;;;4.40;3.28;;;;;;;22.15;55.81;96741.78;10535968;28;20127;-28
2022/09/01 01:26:04;;;;;;;4.35;3.78;;;;;;;22.12;56.29;96746.94;10541481;28;20024;-29
2022/09/01 01:31:15;;;;;;;5.47;3.45;;;;;;;22.11;56.82;96745.25;10538673;28;20533;-28
2022/09/01 01:36:25;;;;;;;3.92;3.55;;;;;;;22.11;56.00;96742.69;10540572;28;20036;-28
2022/09/01 01:41:28;;;;;;;4.93;3.63;;;;;;;22.08;56.17;96740.19;10544752;28;20028;-28
2022/09/01 01:46:33;;;;;;;4.82;3.67;;;;;;;22.11;55.78;96742.69;10541777;28;20406;-28
2022/09/01 01:51:34;;;;;;;3.50;3.20;;;;;;;22.23;55.39;96742.50;10527591;28;20028;-29
2022/09/01 01:56:40;;;;;;;5.38;3.90;;;;;;;22.17;55.40;96742.63;10554015;28;20493;-28
2022/09/01 02:01:42;;;;;;;6.57;4.13;;;;;;;22.13;55.61;96746.06;10518829;28;20038;-29
2022/09/01 02:06:46;;;;;;;6.35;3.55;;;;;;;22.10;55.76;96741.03;10543403;28;20063;-28
2022/09/01 02:11:48;;;;;;;4.88;4.35;;;;;;;22.06;56.49;96739.38;10542249;28;20097;-29
2022/09/01 02:16:49;;;;;;;3.80;3.40;;;;;;;22.08;56.36;96745.28;10539643;28;20491;-28
2022/09/01 02:21:53;;;;;;;3.72;3.17;;;;;;;22.09;55.94;96741.88;10533139;28;20027;-28
2022/09/01 02:26:53;;;;;;;5.47;4.03;;;;;;;22.08;55.58;96737.63;10543574;28;20113;-28
2022/09/01 02:31:56;;;;;;;4.28;3.35;;;;;;;22.12;55.41;96730.78;10543936;28;20415;-28
2022/09/01 02:36:58;;;;;;;5.90;3.72;;;;;;;22.16;54.87;96728.16;10521108;28;20031;-28
2022/09/01 02:42:00;;;;;;;4.20;3.72;;;;;;;22.12;55.10;96729.09;10547310;28;20479;-28
2022/09/01 02:47:04;;;;;;;3.53;3.22;;;;;;;22.13;55.39;96742.69;10533808;28;20096;-28
2022/09/01 02:52:05;;;;;;;5.38;3.63;;;;;;;22.09;55.21;96726.59;10533950;28;20128;-28
2022/09/01 02:57:07;;;;;;;5.70;3.42;;;;;;;22.08;55.34;96724.88;10529996;28;20495;-28
2022/09/01 03:02:08;;;;;;;5.88;3.05;;;;;;;22.06;55.45;96736.81;10536759;28;20063;-28
2022/09/01 03:07:09;;;;;;;3.67;3.38;;;;;;;22.03;55.55;96731.75;10545043;28;20052;-30
2022/09/01 03:12:09;;;;;;;5.03;3.87;;;;;;;21.99;55.42;96719.91;10532090;28;20552;-28
2022/09/01 03:17:10;;;;;;;4.33;3.93;;;;;;;22.10;55.10;96718.06;10556218;28;20285;-28
2022/09/01 03:22:11;;;;;;;6.47;4.20;;;;;;;22.17;54.69;96721.38;10546184;28;20039;-28
2022/09/01 03:27:11;;;;;;;3.83;3.47;;;;;;;22.10;54.98;96723.16;10539437;28;20039;-28
2022/09/01 03:32:12;;;;;;;4.23;3.83;;;;;;;22.06;55.06;96725.78;10544132;28;20038;-28
2022/09/01 03:37:12;;;;;;;5.07;3.37;;;;;;;22.02;55.09;96730.09;10545727;28;20293;-29
2022/09/01 03:42:18;;;;;;;6.22;3.83;;;;;;;22.00;55.21;96726.72;10544148;28;21402;-28
2022/09/01 03:47:20;;;;;;;3.90;3.50;;;;;;;22.02;54.90;96713.94;10545991;28;20479;-28
2022/09/01 03:52:26;;;;;;;8.38;4.18;;;;;;;21.98;54.88;96718.22;10548264;28;20032;-28
2022/09/01 03:57:28;;;;;;;4.85;3.50;;;;;;;21.99;54.98;96709.72;10538741;28;20033;-28
2022/09/01 04:02:29;;;;;;;5.43;3.55;;;;;;;22.07;54.67;96707.91;10536815;28;20023;-28
2022/09/01 04:07:29;;;;;;;4.38;3.97;;;;;;;22.07;54.98;96707.91;10542142;28;20488;-27
2022/09/01 04:12:30;;;;;;;7.87;4.00;;;;;;;22.10;54.57;96701.91;10545322;28;20028;-28
2022/09/01 04:22:51;;;;;;;7.10;4.47;;;;;;;22.01;54.76;96708.00;10539073;28;20024;-28
2022/09/01 04:27:54;;;;;;;4.85;3.30;;;;;;;22.01;54.43;96708.00;10541734;28;20058;-28
2022/09/01 04:32:55;;;;;;;6.10;4.28;;;;;;;22.00;54.25;96708.00;10546235;28;20031;-28
2022/09/01 04:37:56;;;;;;;4.82;3.40;;;;;;;21.96;54.99;96714.88;10543498;28;20425;-27
2022/09/01 04:42:56;;;;;;;4.37;3.60;;;;;;;21.70;56.55;96705.88;10542207;28;20035;-28
2022/09/01 04:47:59;;;;;;;6.70;4.13;;;;;;;21.71;56.21;96713.50;10541134;28;20273;-28
2022/09/01 04:53:03;;;;;;;7.10;3.42;;;;;;;21.80;55.79;96710.00;10552380;28;20034;-28
2022/09/01 04:58:12;;;;;;;3.85;3.50;;;;;;;21.72;55.78;96727.94;10539627;28;20042;-29
2022/09/01 05:03:13;;;;;;;6.65;3.67;;;;;;;21.78;55.94;96719.34;10541793;28;20034;-28
2022/09/01 05:08:30;;;;;;;3.30;3.00;;;;;;;21.79;55.72;96724.44;10539022;28;20073;-29
2022/09/01 05:13:34;;;;;;;4.60;2.95;;;;;;;21.67;56.26;96722.06;10544530;28;20028;-29
2022/09/01 05:18:35;;;;;;;3.25;2.90;;;;;;;21.71;55.60;96718.59;10543716;28;20067;-27
2022/09/01 05:23:39;;;;;;;4.75;3.30;;;;;;;21.64;55.91;96722.03;10533349;28;20106;-28
2022/09/01 05:28:40;;;;;;;5.38;3.25;;;;;;;21.73;55.83;96728.78;10539100;28;20040;-28
2022/09/01 05:33:44;;;;;;;4.72;3.22;;;;;;;21.91;54.75;96734.47;10543835;28;20101;-27
2022/09/01 05:38:46;;;;;;;5.70;3.15;;;;;;;22.03;53.71;96747.06;10533711;28;20038;-28
2022/09/01 05:43:50;;;;;;;4.07;3.63;;;;;;;21.97;55.07;96752.22;10547219;28;20034;-29
2022/09/01 05:48:52;;;;;;;4.97;3.30;;;;;;;21.96;55.10;96747.16;10545564;28;20043;-29
2022/09/01 05:53:57;;;;;;;7.07;3.25;;;;;;;21.77;54.07;96748.25;10545166;28;20482;-28
2022/09/01 05:59:01;;;;;;;6.90;3.47;;;;;;;21.72;54.10;96744.94;10536135;28;20032;-29
2022/09/01 06:04:03;;;;;;;4.88;2.67;;;;;;;21.66;54.63;96752.66;10541315;28;20019;-28
2022/09/01 06:09:06;;;;;;;4.57;3.38;;;;;;;21.57;54.94;96745.91;10528203;28;21138;-28
2022/09/01 06:14:09;;;;;;;6.25;3.53;;;;;;;21.56;54.56;96751.88;10538361;28;20032;-28
2022/09/01 06:19:11;;;;;;;3.85;2.92;;;;;;;21.77;54.41;96753.34;10531410;28;20572;-27
2022/09/01 06:24:14;;;;;;;3.22;2.42;;;;;;;21.86;54.91;96746.44;10536381;28;20065;-28
2022/09/01 06:29:15;;;;;;;3.45;2.70;;;;;;;22.08;54.10;96752.09;10539763;28;20117;-28
2022/09/01 06:34:21;;;;;;;3.22;3.03;;;;;;;21.88;54.45;96757.47;10535310;28;20030;-28
2022/09/01 06:39:22;;;;;;;2.70;2.50;;;;;;;21.58;54.37;96762.06;10543458;28;20043;-29
2022/09/01 06:44:29;;;;;;;2.47;2.28;;;;;;;21.52;54.81;96757.00;10547666;28;20039;-28
2022/09/01 06:49:38;;;;;;;6.10;3.65;;;;;;;21.53;55.24;96757.00;10547885;28;20032;-27
2022/09/01 06:54:43;;;;;;;3.80;2.83;;;;;;;21.58;54.58;96755.25;10547703;28;20039;-28
2022/09/01 06:59:44;;;;;;;5.43;2.92;;;;;;;21.56;56.48;96764.59;10549341;28;20398;-28
2022/09/01 07:04:45;;;;;;;8.32;3.88;;;;;;;21.81;55.13;96762.66;10554530;28;20426;-30
2022/09/01 07:09:46;;;;;;;4.40;3.17;;;;;;;21.90;56.32;96757.44;10560168;28;20050;-28
2022/09/01 07:15:09;;;;;;;9.23;3.40;;;;;;;21.78;54.09;96761.00;10553724;28;20132;-28
2022/09/01 07:20:10;;;;;;;3.78;3.30;;;;;;;21.69;54.52;96771.28;10535983;28;20035;-28
2022/09/01 07:25:12;;;;;;;9.93;3.20;;;;;;;21.65;54.07;96764.53;10549616;28;20097;-27
2022/09/01 07:30:41;;;;;;;9.32;4.32;;;;;;;21.69;53.86;96765.34;10544405;28;20427;-28
2022/09/01 07:35:42;;;;;;;10.98;4.28;;;;;;;21.83;55.03;96759.25;10526250;28;20047;-31
2022/09/01 07:40:43;;;;;;;9.95;3.17;;;;;;;21.69;54.43;96761.09;10549216;28;20025;-28
2022/09/01 07:45:47;;;;;;;6.63;3.10;;;;;;;21.84;54.17;96760.06;10546438;28;20491;-28
2022/09/01 07:50:52;;;;;;;10.50;4.20;;;;;;;21.98;54.86;96761.56;10521211;28;20057;-27
2022/09/01 07:55:55;;;;;;;7.75;3.00;;;;;;;22.03;56.77;96761.50;10532848;28;20499;-28
2022/09/01 08:00:59;;;;;;;7.07;3.03;;;;;;;21.98;57.99;96764.13;10534177;28;20039;-28
2022/09/01 08:06:07;;;;;;;6.43;2.80;;;;;;;21.96;57.68;96765.00;10536653;28;20035;-28
2022/09/01 08:11:08;;;;;;;4.40;2.53;;;;;;;21.96;58.02;96763.31;10528967;28;20028;-28
2022/09/01 08:16:10;;;;;;;3.88;2.28;;;;;;;21.98;57.99;96765.84;10540074;28;20089;-29
2022/09/01 08:21:11;;;;;;;9.18;3.00;;;;;;;22.01;55.54;96764.09;10524426;28;20433;-28
2022/09/01 08:26:30;;;;;;;4.50;2.90;;;;;;;21.84;54.54;96755.81;10530023;28;20035;-29
2022/09/01 08:31:31;;;;;;;3.55;2.50;;;;;;;21.88;53.02;96759.19;10531524;28;20042;-28
2022/09/01 08:36:33;;;;;;;4.70;2.88;;;;;;;21.89;53.35;96759.13;10525442;28;20050;-28
2022/09/01 08:42:04;;;;;;;8.68;2.63;;;;;;;21.90;54.14;96760.81;10534760;28;20039;-29
2022/09/01 08:47:08;;;;;;;2.63;2.42;;;;;;;21.97;56.72;96767.53;10526170;28;20545;-28
2022/09/01 08:52:36;;;;;;;2.90;2.20;;;;;;;21.92;57.70;96764.22;10547386;28;20028;-28
2022/09/01 08:57:41;;;;;;;3.17;2.85;;;;;;;21.92;57.85;96768.47;10531837;28;20035;-28
2022/09/01 09:03:14;;;;;;;6.68;2.58;;;;;;;21.92;58.00;96774.41;10541322;28;20031;-28
2022/09/01 09:08:32;;;;;;;2.78;2.50;;;;;;;21.93;57.93;96776.09;10539743;28;20562;-28
2022/09/01 09:14:06;;;;;;;2.90;2.35;;;;;;;21.93;57.96;96768.44;10544323;28;20044;-28
2022/09/01 09:19:15;;;;;;;3.45;2.33;;;;;;;22.03;55.12;96767.47;10548186;28;20043;-27
2022/09/01 09:24:48;;;;;;;2.83;2.15;;;;;;;22.08;54.66;96765.66;10545957;28;20531;-28
2022/09/01 09:29:52;;;;;;;3.90;2.13;;;;;;;22.12;56.11;96764.78;10540172;28;20032;-28
2022/09/01 09:34:52;;;;;;;2.78;2.58;;;;;;;22.03;57.28;96762.38;10547603;28;20077;-27
2022/09/01 09:40:09;;;;;;;2.20;1.92;;;;;;;22.00;57.79;96762.41;10546020;28;20116;-28
2022/09/01 09:45:26;;;;;;;2.17;2.00;;;;;;;21.94;57.85;96749.75;10546779;28;20042;-28
2022/09/01 09:50:34;;;;;;;4.63;2.00;;;;;;;21.96;57.72;96750.56;10541463;28;20032;-28
2022/09/01 09:55:34;;;;;;;2.20;2.00;;;;;;;21.96;57.84;96740.34;10550080;28;20043;-29
2022/09/01 10:00:35;;;;;;;3.20;2.47;;;;;;;21.97;57.58;96731.84;10545286;28;20036;-28
2022/09/01 10:05:50;;;;;;;3.72;2.15;;;;;;;22.08;55.30;96727.44;10546584;28;20300;-28
2022/09/01 10:10:51;;;;;;;5.00;3.38;;;;;;;22.13;55.36;96725.66;10541265;28;20036;-28
2022/09/01 10:15:58;;;;;;;2.17;1.85;;;;;;;22.15;56.33;96725.66;10541322;28;20044;-28
2022/09/01 10:21:00;;;;;;;2.22;2.08;;;;;;;22.03;57.58;96713.06;10542299;28;20590;-29
2022/09/01 10:26:18;;;;;;;2.67;2.00;;;;;;;22.02;57.61;96708.84;10550553;28;20027;-28
2022/09/01 10:31:20;;;;;;;2.30;2.10;;;;;;;21.98;57.78;96710.56;10539896;28;20396;-28
2022/09/01 10:36:21;;;;;;;2.35;2.15;;;;;;;21.98;57.87;96707.19;10545334;28;20039;-27
2022/09/01 10:41:49;;;;;;;2.05;1.88;;;;;;;21.97;58.06;96696.16;10549846;28;20562;-27
2022/09/01 10:46:51;;;;;;;2.55;1.95;;;;;;;21.97;57.69;96691.03;10547654;28;20040;-28
2022/09/01 10:51:53;;;;;;;2.65;2.17;;;;;;;22.12;55.62;96690.84;10542317;28;20035;-28
2022/09/01 10:56:55;;;;;;;2.25;1.75;;;;;;;22.14;55.94;96678.06;10542951;28;20035;-27
2022/09/01 11:02:09;;;;;;;2.10;1.90;;;;;;;22.15;56.71;96689.94;10541148;28;20028;-28
2022/09/01 11:07:22;;;;;;;2.20;2.00;;;;;;;22.05;57.68;96689.22;10545293;28;20113;-27
2022/09/01 11:12:38;;;;;;;2.30;2.10;;;;;;;22.02;57.74;96694.38;10558848;28;20042;-28
2022/09/01 11:17:55;;;;;;;2.30;2.10;;;;;;;22.00;57.88;96685.94;10547778;28;20114;-28
2022/09/01 11:22:55;;;;;;;1.92;1.80;;;;;;;21.99;57.79;96686.75;10541394;28;20116;-27
2022/09/01 11:27:58;;;;;;;2.58;2.38;;;;;;;22.00;58.11;96674.88;10561461;28;20112;-32
2022/09/01 11:33:16;;;;;;;2.05;1.85;;;;;;;22.04;57.10;96687.56;10555347;28;20036;-28
2022/09/01 11:38:17;;;;;;;2.15;1.83;;;;;;;22.15;56.01;96682.31;10557738;28;20082;-27
2022/09/01 11:43:19;;;;;;;2.10;2.00;;;;;;;22.19;56.23;96672.03;10556454;28;20031;-27
2022/09/01 11:48:19;;;;;;;1.77;1.65;;;;;;;22.14;57.06;96673.78;10553245;28;20077;-27
2022/09/01 11:53:22;;;;;;;2.10;1.90;;;;;;;22.07;57.72;96681.56;10555256;28;20077;-28
2022/09/01 11:58:26;;;;;;;3.13;2.78;;;;;;;22.02;58.13;96676.53;10549904;28;20354;-28
2022/09/01 12:03:28;;;;;;;1.90;1.77;;;;;;;22.01;58.06;96685.06;10559182;28;20092;-27
2022/09/01 12:08:33;;;;;;;2.13;1.98;;;;;;;22.02;58.04;96685.88;10551132;28;20038;-31
2022/09/01 12:13:34;;;;;;;2.17;1.98;;;;;;;21.97;57.90;96672.38;10546904;28;20036;-27
2022/09/01 12:18:46;;;;;;;2.17;1.98;;;;;;;22.06;57.07;96673.06;10556329;28;20437;-27
2022/09/01 12:23:46;;;;;;;2.83;1.95;;;;;;;22.19;56.15;96666.94;10542797;28;20149;-28
2022/09/01 12:28:48;;;;;;;2.13;1.93;;;;;;;22.22;56.70;96671.97;10558560;28;20574;-27
2022/09/01 12:33:50;;;;;;;1.73;1.40;;;;;;;22.18;57.16;96677.16;10556870;28;20328;-27
2022/09/01 12:39:17;;;;;;;1.80;1.70;;;;;;;22.12;57.63;96670.44;10554265;28;20051;-27
2022/09/01 12:44:27;;;;;;;1.83;1.73;;;;;;;22.06;57.78;96665.41;10519022;28;20047;-27
2022/09/01 12:49:41;;;;;;;4.95;1.95;;;;;;;22.05;57.88;96663.72;10550061;28;20038;-28
2022/09/01 12:54:41;;;;;;;1.95;1.77;;;;;;;22.05;57.92;96657.81;10536299;28;20123;-28
2022/09/01 12:59:42;;;;;;;6.43;1.97;;;;;;;22.06;57.90;96659.50;10545103;28;20042;-28
2022/09/01 13:04:42;;;;;;;2.10;1.90;;;;;;;22.15;57.13;96655.06;10545904;28;20285;-28
2022/09/01 13:09:43;;;;;;;6.13;2.20;;;;;;;22.25;56.22;96656.66;10557295;28;20024;-28
2022/09/01 13:14:43;;;;;;;2.47;1.90;;;;;;;22.30;55.85;96648.91;10551836;28;20087;-28
2022/09/01 13:19:44;;;;;;;2.20;1.80;;;;;;;22.27;56.18;96649.81;10547964;28;20332;-28
2022/09/01 13:24:44;;;;;;;8.77;2.10;;;;;;;22.27;55.34;96641.28;10553245;28;20077;-27
2022/09/01 13:29:45;;;;;;;3.73;2.00;;;;;;;22.24;55.49;96642.19;10536636;28;20545;-27
2022/09/01 13:34:47;;;;;;;6.07;2.25;;;;;;;22.27;55.38;96644.69;10536264;28;20372;-28
2022/09/01 13:39:48;;;;;;;6.07;3.58;;;;;;;22.25;56.00;96643.88;10534055;28;20495;-27
2022/09/01 13:44:48;;;;;;;5.38;2.10;;;;;;;22.24;56.08;96629.44;10541283;27;20146;-28
2022/09/01 13:49:49;;;;;;;3.92;2.30;;;;;;;22.27;55.25;96639.59;10537786;28;20036;-27
2022/09/01 13:54:49;;;;;;;3.92;2.90;;;;;;;22.31;54.87;96625.91;10541266;28;20036;-27
2022/09/01 13:59:50;;;;;;;8.38;2.20;;;;;;;22.36;55.11;96626.69;10534891;28;20489;-27
2022/09/01 14:04:51;;;;;;;3.30;1.77;;;;;;;22.32;55.53;96617.38;10538322;28;20028;-27
2022/09/01 14:09:51;;;;;;;3.15;2.15;;;;;;;22.29;55.05;96619.16;10553049;28;20040;-28
2022/09/01 14:14:52;;;;;;;5.43;2.03;;;;;;;22.30;55.08;96624.22;10539423;28;20067;-27
2022/09/01 14:19:52;;;;;;;6.67;2.67;;;;;;;22.29;55.40;96616.59;10542796;28;20039;-27
2022/09/01 14:24:52;;;;;;;6.30;2.20;;;;;;;22.27;55.71;96614.09;10551387;28;20055;-27
2022/09/01 14:29:53;;;;;;;14.80;3.40;;;;;;;22.27;55.81;96614.09;10537791;28;20047;-28
2022/09/01 14:34:55;;;;;;;9.50;2.83;;;;;;;22.31;55.68;96614.88;10533703;28;20119;-28
2022/09/01 14:39:56;;;;;;;8.15;2.13;;;;;;;22.40;55.21;96615.56;10539214;28;20030;-27
2022/09/01 14:44:57;;;;;;;5.95;2.33;;;;;;;22.42;55.49;96608.78;10544844;28;20042;-28
2022/09/01 14:49:57;;;;;;;7.15;2.47;;;;;;;22.37;55.95;96625.81;10546917;28;20034;-28
2022/09/01 14:54:57;;;;;;;5.80;2.00;;;;;;;22.34;56.00;96617.38;10545093;28;20038;-27
2022/09/01 14:59:59;;;;;;;5.70;2.00;;;;;;;22.33;55.88;96608.88;10543611;28;20440;-28
2022/09/01 15:04:59;;;;;;;5.47;2.13;;;;;;;22.30;56.44;96610.66;10550325;28;20032;-28
2022/09/01 15:10:00;;;;;;;2.60;2.33;;;;;;;22.24;56.64;96606.47;10557288;28;20039;-27
2022/09/01 15:15:00;;;;;;;4.68;2.25;;;;;;;22.26;57.00;96612.41;10546235;28;20488;-28
2022/09/01 15:25:22;;;;;;;10.05;2.40;;;;;;;22.44;55.89;96617.22;10558795;28;20039;-27
2022/09/01 15:30:22;;;;;;;9.68;2.30;;;;;;;22.45;56.13;96608.72;10552527;28;20035;-28
2022/09/01 15:35:23;;;;;;;12.43;2.93;;;;;;;22.34;56.97;96610.56;10550901;27;20074;-28
2022/09/01 15:40:25;;;;;;;9.20;1.90;;;;;;;22.29;57.26;96612.34;10557044;28;20278;-27
2022/09/01 15:45:27;;;;;;;17.63;2.58;;;;;;;22.30;56.62;96606.38;10557925;28;20364;-27
2022/09/01 15:50:28;;;;;;;34.83;4.10;;;;;;;22.31;57.46;96605.50;10547949;28;20031;-28
2022/09/01 15:55:40;;;;;;;19.47;3.03;;;;;;;22.31;57.20;96597.03;10553787;28;20036;-27
2022/09/01 16:00:42;;;;;;;15.25;3.45;;;;;;;22.33;57.19;96602.94;10549441;28;20312;-28
2022/09/01 16:05:43;;;;;;;16.95;4.93;;;;;;;22.38;57.12;96607.09;10550599;28;20054;-29
2022/09/01 16:10:43;;;;;;;9.87;2.60;;;;;;;22.48;55.58;96598.44;10554541;28;20474;-28
2022/09/01 16:15:50;;;;;;;26.15;3.50;;;;;;;22.43;55.15;96599.38;10551565;28;20047;-27
2022/09/01 16:21:09;;;;;;;23.35;3.65;;;;;;;22.40;57.16;96600.25;10550070;28;20028;-28
2022/09/01 16:26:10;;;;;;;17.52;3.63;;;;;;;22.40;56.62;96600.25;10561175;28;20027;-28
2022/09/01 16:31:19;;;;;;;17.55;2.90;;;;;;;22.38;56.67;96602.00;10538391;28;20483;-28
2022/09/01 16:36:58;;;;;;;5.88;2.25;;;;;;;22.28;57.34;96592.81;10552006;28;20044;-28
2022/09/01 16:42:04;;;;;;;12.82;2.40;;;;;;;22.37;56.60;96594.34;10548970;28;20466;-27
2022/09/01 16:47:27;;;;;;;6.25;2.17;;;;;;;22.26;57.34;96591.16;10551111;28;20061;-29
2022/09/01 16:52:31;;;;;;;9.45;2.65;;;;;;;22.36;56.79;96590.97;10549676;28;20479;-29
2022/09/01 16:57:31;;;;;;;12.55;2.53;;;;;;;22.42;56.49;96593.47;10545594;28;20068;-28
2022/09/01 17:02:40;;;;;;;5.97;2.13;;;;;;;22.37;56.62;96590.09;10549438;28;20062;-29
2022/09/01 17:08:10;;;;;;;3.78;1.55;;;;;;;22.29;57.18;96591.94;10533958;28;20044;-28
2022/09/01 17:13:19;;;;;;;2.65;1.85;;;;;;;22.18;57.28;96598.94;10536718;28;20047;-29
2022/09/01 17:18:32;;;;;;;3.00;1.73;;;;;;;22.01;57.84;96600.91;10553968;28;20321;-28
2022/09/01 17:23:39;;;;;;;2.97;1.85;;;;;;;22.05;57.53;96607.66;10540377;28;20024;-29
2022/09/01 17:28:54;;;;;;;3.78;1.90;;;;;;;22.03;57.46;96603.44;10509687;28;20507;-28
2022/09/01 17:34:20;;;;;;;2.58;2.08;;;;;;;22.04;57.35;96610.22;10541529;28;20101;-29
2022/09/01 17:39:44;;;;;;;4.18;1.85;;;;;;;22.17;56.68;96622.75;10550388;28;20035;-29
2022/09/01 17:44:56;;;;;;;5.45;2.28;;;;;;;22.14;56.40;96616.88;10526146;28;20052;-30
2022/09/01 17:50:02;;;;;;;3.60;1.67;;;;;;;21.94;56.84;96623.97;10528461;28;20036;-28
2022/09/01 17:55:11;;;;;;;1.90;1.80;;;;;;;21.97;56.68;96631.59;10536875;28;20075;-27
2022/09/01 18:00:33;;;;;;;5.45;1.55;;;;;;;21.94;56.54;96622.28;10548258;28;20148;-28
2022/09/01 18:05:55;;;;;;;2.90;2.00;;;;;;;21.91;56.50;96626.56;10522333;28;20043;-28
2022/09/01 18:11:01;;;;;;;1.70;1.60;;;;;;;21.91;56.47;96634.22;10522400;28;20044;-29
2022/09/01 18:16:08;;;;;;;2.42;1.90;;;;;;;21.92;56.43;96625.69;10527746;28;20106;-28
2022/09/01 18:21:23;;;;;;;2.28;1.70;;;;;;;21.87;56.51;96632.56;10526689;28;20104;-28
2022/09/01 18:26:31;;;;;;;1.98;1.65;;;;;;;21.92;56.14;96636.75;10538255;28;20526;-29
2022/09/01 18:31:36;;;;;;;2.17;1.95;;;;;;;21.87;56.35;96648.72;10538384;28;20128;-29
2022/09/01 18:36:46;;;;;;;3.05;2.13;;;;;;;21.77;56.20;96656.50;10544310;28;20047;-28
2022/09/01 18:42:10;;;;;;;3.90;2.08;;;;;;;21.74;56.28;96656.56;10536879;28;20040;-29
2022/09/01 18:47:13;;;;;;;2.72;2.15;;;;;;;21.69;56.18;96648.13;10533460;28;20563;-28
2022/09/01 18:52:23;;;;;;;6.03;2.10;;;;;;;21.59;56.72;96657.59;10547887;28;20040;-28
2022/09/01 18:57:34;;;;;;;3.38;2.15;;;;;;;21.68;56.27;96649.00;10535185;28;20044;-28
2022/09/01 19:03:16;;;;;;;4.43;2.22;;;;;;;21.66;56.28;96669.38;10536299;28;20047;-29
2022/09/01 19:08:29;;;;;;;2.40;2.20;;;;;;;21.72;56.38;96663.38;10533222;28;20044;-28
2022/09/01 19:13:52;;;;;;;6.13;2.67;;;;;;;21.73;56.70;96665.06;10542519;28;20032;-29
2022/09/01 19:19:29;;;;;;;5.47;2.50;;;;;;;21.72;58.98;96663.38;10541480;28;20143;-28
2022/09/01 19:24:35;;;;;;;;;;;;;;;21.71;57.41;96657.44;10553431;28;20422;-28
2022/09/01 19:29:44;;;;;;;8.30;2.40;;;;;;;21.79;58.94;96659.88;10544833;28;19958;-28
2022/09/01 19:34:50;;;;;;;4.43;2.17;;;;;;;21.68;57.84;96654.94;10542458;28;20046;-29
2022/09/01 19:39:50;;;;;;;4.40;2.60;;;;;;;21.68;56.86;96662.59;10559653;28;20084;-29
2022/09/01 19:45:12;;;;;;;2.20;2.00;;;;;;;21.77;56.86;96666.69;10551543;28;20040;-28
2022/09/01 19:50:23;;;;;;;2.58;2.38;;;;;;;21.78;56.40;96660.72;10547602;28;20057;-28
2022/09/01 19:55:41;;;;;;;4.65;2.67;;;;;;;21.69;56.27;96661.72;10556913;28;20035;-28
2022/09/01 20:00:52;;;;;;;3.75;2.30;;;;;;;21.61;56.40;96665.19;10545818;28;20469;-28
2022/09/01 20:06:05;;;;;;;3.95;2.88;;;;;;;21.59;56.20;96657.59;10552118;28;20040;-28
2022/09/01 20:11:17;;;;;;;3.15;2.72;;;;;;;21.48;56.64;96653.47;10557951;28;20085;-30
2022/09/01 20:16:31;;;;;;;3.58;2.80;;;;;;;21.39;56.05;96649.34;10554125;28;20050;-30
2022/09/01 20:21:32;;;;;;;4.85;2.80;;;;;;;21.33;56.09;96644.34;10541547;28;20024;-28
2022/09/01 20:26:57;;;;;;;3.20;2.65;;;;;;;21.28;56.09;96641.00;10545686;28;20040;-28
2022/09/01 20:32:00;;;;;;;3.25;2.80;;;;;;;21.26;56.23;96640.19;10534347;28;20555;-32
2022/09/01 20:37:19;;;;;;;2.95;2.60;;;;;;;21.22;56.16;96638.50;10533229;28;20044;-29
2022/09/01 20:42:43;;;;;;;2.75;2.53;;;;;;;21.22;56.41;96632.59;10567575;28;20027;-29
2022/09/01 20:47:52;;;;;;;3.47;2.75;;;;;;;21.20;56.13;96641.94;10560077;28;20036;-29
2022/09/01 20:52:55;;;;;;;3.47;2.72;;;;;;;21.17;56.01;96627.56;10557831;28;20060;-29
2022/09/01 20:58:08;;;;;;;2.65;2.45;;;;;;;21.18;56.08;96634.34;10528931;28;20039;-29
2022/09/01 21:03:38;;;;;;;2.75;2.53;;;;;;;21.11;56.13;96630.16;10543553;28;20156;-29
2022/09/01 21:08:52;;;;;;;3.85;2.85;;;;;;;21.13;56.26;96640.34;10540576;28;20047;-29
2022/09/01 21:14:07;;;;;;;3.28;3.08;;;;;;;21.17;56.07;96641.97;10548284;28;20047;-29
2022/09/01 21:19:28;;;;;;;3.03;2.72;;;;;;;21.18;55.88;96631.78;10552636;28;20042;-29
2022/09/01 21:24:29;;;;;;;3.05;2.38;;;;;;;21.14;55.78;96635.22;10553314;28;20024;-29
2022/09/01 21:29:58;;;;;;;3.42;2.83;;;;;;;21.15;55.76;96633.53;10536969;28;20032;-30
2022/09/01 21:34:59;;;;;;;2.63;2.42;;;;;;;21.15;55.55;96634.34;10527554;28;20480;-29
2022/09/01 21:40:00;;;;;;;3.00;2.63;;;;;;;21.12;55.38;96624.22;10544350;28;20035;-29
2022/09/01 21:45:02;;;;;;;3.30;3.03;;;;;;;21.10;55.47;96633.56;10542928;28;20414;-29
2022/09/01 21:50:04;;;;;;;2.47;2.25;;;;;;;21.11;55.63;96627.63;10544115;28;20296;-29
2022/09/01 21:55:06;;;;;;;3.22;2.55;;;;;;;21.04;55.75;96620.91;10552759;28;20118;-30
2022/09/01 22:00:10;;;;;;;3.60;2.75;;;;;;;21.02;55.99;96620.09;10545609;28;20743;-29
2022/09/01 22:05:15;;;;;;;2.60;2.38;;;;;;;21.01;56.23;96625.19;10546228;28;20054;-29
2022/09/01 22:10:19;;;;;;;3.50;2.50;;;;;;;20.99;56.25;96616.75;10551601;28;20039;-29
2022/09/01 22:15:22;;;;;;;4.38;2.47;;;;;;;20.95;56.44;96602.34;10548778;28;20126;-28
2022/09/01 22:20:23;;;;;;;2.55;2.35;;;;;;;20.95;56.61;96605.75;10542108;28;20032;-29
2022/09/01 22:25:23;;;;;;;4.07;2.58;;;;;;;20.92;56.59;96603.25;10551173;28;20044;-29
2022/09/01 22:30:24;;;;;;;2.40;2.13;;;;;;;20.93;56.64;96601.53;10548500;28;20051;-29
2022/09/01 22:35:24;;;;;;;3.80;2.72;;;;;;;20.92;56.43;96600.69;10547280;28;20035;-29
2022/09/01 22:40:25;;;;;;;3.03;2.60;;;;;;;20.91;56.55;96590.53;10552869;28;20050;-29
2022/09/01 22:45:25;;;;;;;3.93;2.60;;;;;;;20.88;56.57;96588.84;10544453;28;20042;-29
2022/09/01 22:50:26;;;;;;;1.90;1.80;;;;;;;20.86;56.47;96594.81;10541332;28;20035;-29
2022/09/01 22:55:26;;;;;;;2.67;2.47;;;;;;;20.84;56.04;96589.72;10550209;28;20288;-30
2022/09/01 23:00:27;;;;;;;3.72;2.47;;;;;;;20.84;56.45;96587.19;10542317;28;20031;-30
2022/09/01 23:05:28;;;;;;;3.20;2.33;;;;;;;20.83;56.38;96600.78;10547016;28;20067;-30
2022/09/01 23:10:29;;;;;;;4.07;2.30;;;;;;;20.81;56.26;96594.00;10551922;28;20290;-29
2022/09/01 23:15:29;;;;;;;3.30;2.27;;;;;;;20.81;56.22;96594.84;10539779;28;20036;-29
2022/09/01 23:20:30;;;;;;;2.47;2.25;;;;;;;20.79;56.00;96596.56;10543012;28;20143;-29
2022/09/01 23:25:30;;;;;;;2.72;2.05;;;;;;;20.76;56.20;96586.44;10559880;28;20174;-29
2022/09/01 23:30:31;;;;;;;3.83;2.20;;;;;;;20.76;56.05;96573.72;10553151;28;20031;-30
2022/09/01 23:35:31;;;;;;;3.57;2.80;;;;;;;20.73;55.84;96570.34;10552608;28;20346;-29
2022/09/01 23:40:31;;;;;;;2.50;2.30;;;;;;;20.71;56.08;96565.28;10557064;28;20273;-29
2022/09/01 23:45:37;;;;;;;2.45;2.25;;;;;;;20.68;55.99;96556.81;10558160;28;20491;-29
2022/09/01 23:50:59;;;;;;;2.60;2.40;;;;;;;20.69;56.19;96559.38;10546117;28;20043;-29
2022/09/01 23:56:02;;;;;;;2.92;2.20;;;;;;;20.70;56.03;96558.50;10546340;28;20406;-29
